createdAt,value
2023-03-13T00:00:01.390Z,85.14
2023-03-13T00:05:03.971Z,85.30
2023-03-13T00:10:06.759Z,85.20
2023-03-13T00:15:08.994Z,85.44
2023-03-13T00:20:11.409Z,85.60
2023-03-13T00:25:13.279Z,85.68
2023-03-13T00:30:15.198Z,85.58
2023-03-13T00:35:17.155Z,85.77
2023-03-13T00:40:20.262Z,85.71
2023-03-13T00:45:21.776Z,85.54
2023-03-13T00:50:23.407Z,85.62
2023-03-13T00:55:25.076Z,85.49
2023-03-13T01:00:26.781Z,85.28
2023-03-13T01:05:28.485Z,85.43
2023-03-13T01:10:30.178Z,85.32
2023-03-13T01:15:34.910Z,85.17
2023-03-13T01:20:38.518Z,85.06
2023-03-13T01:25:40.628Z,85.01
2023-03-13T01:30:42.563Z,84.88
2023-03-13T01:35:45.704Z,84.60
2023-03-13T01:40:49.402Z,84.61
2023-03-13T01:46:01.710Z,84.55
2023-03-13T01:51:19.744Z,84.49
2023-03-13T01:56:27.846Z,84.69
2023-03-13T02:01:30.917Z,84.37
2023-03-13T02:06:36.507Z,84.39
2023-03-13T02:11:49.944Z,84.14
2023-03-13T02:16:53.240Z,84.04
2023-03-13T02:22:06.186Z,84.47
2023-03-13T02:27:08.014Z,84.51
2023-03-13T02:32:14.265Z,84.27
2023-03-13T02:37:17.492Z,84.10
2023-03-13T02:42:22.637Z,84.24
2023-03-13T02:47:25.437Z,83.94
2023-03-13T02:52:52.205Z,83.73
2023-03-13T02:57:54.193Z,83.38
2023-03-13T03:02:56.270Z,83.33
2023-03-13T03:07:58.038Z,83.74
2023-03-13T03:13:00.572Z,84.01
2023-03-13T03:18:02.518Z,84.74
2023-03-13T03:23:04.661Z,84.98
2023-03-13T03:28:07.620Z,85.38
2023-03-13T03:33:10.017Z,85.44
2023-03-13T03:38:11.904Z,85.27
2023-03-13T03:43:13.786Z,84.87
2023-03-13T03:48:15.997Z,84.53
2023-03-13T03:53:18.128Z,84.52
2023-03-13T03:58:20.012Z,84.20
2023-03-13T04:03:37.955Z,84.03
2023-03-13T04:08:40.124Z,84.00
2023-03-13T04:13:43.957Z,83.77
2023-03-13T04:18:45.765Z,83.39
2023-03-13T04:23:47.677Z,83.26
2023-03-13T04:28:50.787Z,83.14
2023-03-13T04:33:58.240Z,82.93
2023-03-13T04:39:15.488Z,82.94
2023-03-13T04:44:33.681Z,82.68
2023-03-13T04:49:58.211Z,82.49
2023-03-13T04:55:23.774Z,82.51
2023-03-13T05:00:34.914Z,82.35
2023-03-13T05:05:46.419Z,82.21
2023-03-13T05:11:15.415Z,82.16
2023-03-13T05:16:35.602Z,82.12
2023-03-13T05:22:06.169Z,81.99
2023-03-13T05:27:28.372Z,81.76
2023-03-13T05:32:48.431Z,81.07
2023-03-13T05:38:16.593Z,80.56
2023-03-13T05:43:41.518Z,80.38
2023-03-13T05:49:04.548Z,80.02
2023-03-13T05:54:29.207Z,79.88
2023-03-13T05:59:53.215Z,79.83
2023-03-13T06:05:16.118Z,79.63
2023-03-13T06:10:18.367Z,79.36
2023-03-13T06:15:22.013Z,79.20
2023-03-13T06:20:30.138Z,79.15
2023-03-13T06:25:31.917Z,78.96
2023-03-13T06:30:33.734Z,78.69
2023-03-13T06:35:53.135Z,78.44
2023-03-13T06:40:57.634Z,78.68
2023-03-13T06:46:03.601Z,78.79
2023-03-13T06:51:05.702Z,79.11
2023-03-13T06:56:08.256Z,79.16
2023-03-13T07:01:12.052Z,79.22
2023-03-13T07:06:13.800Z,79.22
2023-03-13T07:11:16.207Z,78.86
2023-03-13T07:16:18.184Z,78.53
2023-03-13T07:21:19.853Z,78.29
2023-03-13T07:26:21.640Z,78.33
2023-03-13T07:31:26.467Z,78.10
2023-03-13T07:36:28.620Z,78.27
2023-03-13T07:41:30.503Z,78.42
2023-03-13T07:46:32.107Z,78.94
2023-03-13T07:51:43.404Z,79.23
2023-03-13T07:56:45.422Z,79.78
2023-03-13T08:01:47.319Z,80.03
2023-03-13T08:06:49.004Z,80.28
2023-03-13T08:11:50.668Z,80.66
2023-03-13T08:16:52.533Z,80.45
2023-03-13T08:21:54.163Z,80.17
2023-03-13T08:26:55.810Z,80.21
2023-03-13T08:31:58.600Z,79.97
2023-03-13T08:37:00.269Z,79.85
2023-03-13T08:42:01.914Z,78.19
2023-03-13T08:47:06.137Z,76.00
2023-03-13T08:52:08.199Z,74.60
2023-03-13T08:57:09.863Z,73.90
2023-03-13T09:02:11.760Z,73.40
2023-03-13T09:07:14.779Z,73.41
2023-03-13T09:12:30.011Z,73.48
2023-03-13T09:17:32.974Z,72.80
2023-03-13T09:22:34.723Z,71.72
2023-03-13T09:27:37.585Z,70.91
2023-03-13T09:32:39.539Z,70.57
2023-03-13T09:37:42.003Z,69.70
2023-03-13T09:42:53.000Z,69.77
2023-03-13T09:47:59.105Z,69.30
2023-03-13T09:53:15.221Z,69.90
2023-03-13T09:58:24.642Z,70.61
2023-03-13T10:03:42.685Z,70.49
2023-03-13T10:08:44.585Z,71.13
2023-03-13T10:14:10.372Z,71.20
2023-03-13T10:19:16.937Z,71.42
2023-03-13T10:24:40.183Z,71.11
2023-03-13T10:29:41.779Z,70.87
2023-03-13T10:34:50.637Z,70.87
2023-03-13T10:39:53.469Z,70.51
2023-03-13T10:45:00.462Z,69.77
2023-03-13T10:50:04.172Z,69.84
2023-03-13T10:55:10.565Z,68.58
2023-03-13T11:00:42.545Z,67.59
2023-03-13T11:05:58.725Z,66.77
2023-03-13T11:11:02.704Z,67.99
2023-03-13T11:16:20.005Z,67.78
2023-03-13T11:21:37.671Z,68.41
2023-03-13T11:27:01.995Z,66.42
2023-03-13T11:32:24.003Z,63.88
2023-03-13T11:37:31.196Z,64.88
2023-03-13T11:43:24.005Z,61.33
2023-03-13T11:48:46.883Z,63.09
2023-03-13T11:54:05.850Z,62.73
2023-03-13T11:59:32.037Z,60.86
2023-03-13T12:04:39.349Z,60.84
2023-03-13T12:09:46.293Z,60.96
2023-03-13T12:14:58.872Z,60.79
2023-03-13T12:20:09.781Z,61.78
2023-03-13T12:25:25.113Z,60.53
2023-03-13T12:30:45.626Z,61.01
2023-03-13T12:35:56.959Z,60.18
2023-03-13T12:41:20.848Z,60.91
2023-03-13T12:46:36.885Z,59.98
2023-03-13T12:51:57.878Z,60.72
2023-03-13T12:57:23.860Z,61.21
2023-03-13T13:02:30.821Z,61.25
2023-03-13T13:07:35.344Z,61.10
2023-03-13T13:12:42.339Z,61.29
2023-03-13T13:17:56.515Z,59.45
2023-03-13T13:23:22.641Z,59.93
2023-03-13T13:28:32.330Z,59.66
2023-03-13T13:33:36.527Z,59.27
2023-03-13T13:38:41.047Z,59.07
2023-03-13T13:43:45.203Z,59.42
2023-03-13T13:48:47.124Z,58.32
2023-03-13T13:53:58.124Z,57.42
2023-03-13T13:59:20.356Z,58.16
2023-03-13T14:04:30.004Z,57.45
2023-03-13T14:09:57.405Z,56.78
2023-03-13T14:15:21.864Z,56.35
2023-03-13T14:20:38.539Z,56.38
2023-03-13T14:25:48.642Z,55.81
2023-03-13T14:30:52.962Z,55.87
2023-03-13T14:35:58.023Z,55.57
2023-03-13T14:40:59.937Z,54.93
2023-03-13T14:46:14.403Z,55.39
2023-03-13T14:51:38.865Z,55.17
2023-03-13T14:56:42.227Z,55.17
2023-03-13T15:01:44.628Z,54.85
2023-03-13T15:06:46.272Z,54.34
2023-03-13T15:11:59.314Z,53.91
2023-03-13T15:17:01.232Z,54.09
2023-03-13T15:22:02.937Z,54.01
2023-03-13T15:27:14.645Z,54.43
2023-03-13T15:32:27.545Z,55.00
2023-03-13T15:37:29.704Z,54.76
2023-03-13T15:42:31.450Z,55.08
2023-03-13T15:47:33.274Z,54.96
2023-03-13T15:52:35.723Z,55.31
2023-03-13T15:57:43.981Z,55.77
2023-03-13T16:02:45.912Z,56.18
2023-03-13T16:07:47.571Z,56.74
2023-03-13T16:12:49.323Z,57.41
2023-03-13T16:17:51.182Z,58.47
2023-03-13T16:22:53.764Z,58.95
2023-03-13T16:27:56.241Z,59.46
2023-03-13T16:32:58.531Z,59.69
2023-03-13T16:38:00.266Z,60.05
2023-03-13T16:43:02.510Z,60.68
2023-03-13T16:48:04.286Z,60.96
2023-03-13T16:53:05.959Z,61.17
2023-03-13T16:58:12.617Z,61.80
2023-03-13T17:03:14.318Z,62.30
2023-03-13T17:08:18.947Z,63.26
2023-03-13T17:13:23.417Z,63.67
2023-03-13T17:18:25.712Z,63.90
2023-03-13T17:23:28.465Z,63.88
2023-03-13T17:28:30.069Z,63.77
2023-03-13T17:33:31.807Z,63.84
2023-03-13T17:38:33.466Z,63.63
2023-03-13T17:43:35.209Z,63.40
2023-03-13T17:48:36.876Z,63.09
2023-03-13T17:53:39.298Z,62.90
2023-03-13T17:58:41.179Z,62.83
2023-03-13T18:03:42.866Z,62.61
2023-03-13T18:08:44.971Z,62.56
2023-03-13T18:13:50.686Z,62.52
2023-03-13T18:18:54.006Z,62.64
2023-03-13T18:23:57.009Z,62.62
2023-03-13T18:29:00.322Z,63.09
2023-03-13T18:34:04.416Z,63.11
2023-03-13T18:39:06.427Z,62.92
2023-03-13T18:44:08.433Z,62.68
2023-03-13T18:49:17.036Z,62.26
2023-03-13T18:54:20.825Z,61.51
2023-03-13T18:59:22.871Z,61.23
2023-03-13T19:04:25.082Z,60.96
2023-03-13T19:09:42.824Z,60.76
2023-03-13T19:14:45.555Z,60.55
2023-03-13T19:19:47.410Z,60.18
2023-03-13T19:24:49.132Z,59.87
2023-03-13T19:29:51.287Z,59.42
2023-03-13T19:34:53.107Z,59.54
2023-03-13T19:39:54.908Z,59.62
2023-03-13T19:44:57.189Z,59.46
2023-03-13T19:49:59.053Z,59.42
2023-03-13T19:55:05.105Z,59.60
2023-03-13T20:00:14.134Z,59.69
2023-03-13T20:05:16.057Z,60.00
2023-03-13T20:10:17.936Z,59.71
2023-03-13T20:15:19.693Z,59.45
2023-03-13T20:20:22.167Z,59.26
2023-03-13T20:25:25.097Z,58.94
2023-03-13T20:30:27.031Z,58.57
2023-03-13T20:35:28.927Z,58.32
2023-03-13T20:40:34.916Z,58.20
2023-03-13T20:45:36.688Z,58.14
2023-03-13T20:50:38.544Z,58.19
2023-03-13T20:55:40.354Z,58.37
2023-03-13T21:00:43.108Z,58.29
2023-03-13T21:05:44.948Z,58.09
2023-03-13T21:10:46.868Z,58.27
2023-03-13T21:15:48.890Z,58.47
2023-03-13T21:20:50.684Z,59.57
2023-03-13T21:25:55.249Z,59.59
2023-03-13T21:30:57.067Z,59.05
2023-03-13T21:35:58.830Z,59.27
2023-03-13T21:41:00.598Z,60.13
2023-03-13T21:46:03.900Z,60.86
2023-03-13T21:51:06.731Z,61.43
2023-03-13T21:56:08.813Z,64.27
2023-03-13T22:01:12.078Z,65.73
2023-03-13T22:06:16.225Z,66.41
2023-03-13T22:11:18.390Z,67.22
2023-03-13T22:16:21.094Z,67.99
2023-03-13T22:21:22.739Z,71.23
2023-03-13T22:26:24.597Z,74.65
2023-03-13T22:31:26.314Z,76.77
2023-03-13T22:36:28.034Z,77.91
2023-03-13T22:41:29.705Z,78.63
2023-03-13T22:46:31.557Z,80.87
2023-03-13T22:51:33.478Z,82.17
2023-03-13T22:56:35.563Z,82.62
2023-03-13T23:01:37.297Z,83.04
2023-03-13T23:06:39.123Z,83.00
2023-03-13T23:11:42.507Z,83.69
2023-03-13T23:16:44.213Z,84.13
2023-03-13T23:21:45.945Z,85.52
2023-03-13T23:26:47.669Z,85.97
2023-03-13T23:31:49.473Z,88.02
2023-03-13T23:36:51.315Z,89.53
2023-03-13T23:41:52.961Z,91.01
2023-03-13T23:46:56.657Z,92.27
2023-03-13T23:51:58.438Z,92.38
2023-03-13T23:57:00.137Z,92.56
